HTMT

Mtwara Airport

Mtwara, Tanzania
METAR HTMT 211000Z 13015KT 9999 SCT023 28/18 Q1020
Observed Flight Rules
Jul-21 @ 10:00 UTC (4 hours ago) Visual Flight Rules
Wind Visibility Clouds
130° at 15 knots 10,000+ meters
  • Scattered at 2,300' AGL
Temperatures Readings
Current 28°C / 82°F
Dewpoint 18°C / 64°F
Humidity 55%
Altimeter 30.12" Hg
Pressure 1020 hPa
Elevation 113
METAR HTMT 211000Z 13015KT 9999 SCT023 28/18 Q1020
Observed Flight Rules
Jul-21 @ 10:00 UTC
(4 hours ago)
VFR
Wind Visibility
130° at 15 knots 10,000+ meters
Clouds
  • Scattered at 2,300' AGL
Temperature Dewpoint
28°C / 82°F 18°C / 64°F
Humidity Altimeter Pressure
55% 30.12" Hg 1020 hPa